sensor_id;sensor_type;location;lat;lon;timestamp;P1;durP1;ratioP1;P2;durP2;ratioP2
19343;SDS011;9808;52.402;16.678;2023-01-05T00:01:05;3.93;;;1.53;;
19343;SDS011;9808;52.402;16.678;2023-01-05T00:03:33;4.23;;;1.40;;
19343;SDS011;9808;52.402;16.678;2023-01-05T00:06:08;2.63;;;1.40;;
19343;SDS011;9808;52.402;16.678;2023-01-05T00:08:36;2.70;;;1.20;;
19343;SDS011;9808;52.402;16.678;2023-01-05T00:11:14;3.23;;;1.30;;
19343;SDS011;9808;52.402;16.678;2023-01-05T00:14:01;2.43;;;1.20;;
19343;SDS011;9808;52.402;16.678;2023-01-05T00:16:47;2.77;;;1.10;;
19343;SDS011;9808;52.402;16.678;2023-01-05T00:19:34;2.90;;;1.33;;
19343;SDS011;9808;52.402;16.678;2023-01-05T00:22:42;3.80;;;1.40;;
19343;SDS011;9808;52.402;16.678;2023-01-05T00:25:11;2.93;;;1.27;;
19343;SDS011;9808;52.402;16.678;2023-01-05T00:27:40;3.17;;;1.20;;
19343;SDS011;9808;52.402;16.678;2023-01-05T00:30:08;4.87;;;1.37;;
19343;SDS011;9808;52.402;16.678;2023-01-05T00:32:36;2.33;;;1.10;;
19343;SDS011;9808;52.402;16.678;2023-01-05T00:35:03;4.20;;;1.20;;
19343;SDS011;9808;52.402;16.678;2023-01-05T00:37:31;3.30;;;1.10;;
19343;SDS011;9808;52.402;16.678;2023-01-05T00:39:59;2.17;;;1.10;;
19343;SDS011;9808;52.402;16.678;2023-01-05T00:42:26;4.63;;;1.27;;
19343;SDS011;9808;52.402;16.678;2023-01-05T00:44:54;2.37;;;1.00;;
19343;SDS011;9808;52.402;16.678;2023-01-05T00:47:22;2.67;;;1.03;;
19343;SDS011;9808;52.402;16.678;2023-01-05T00:49:49;4.00;;;1.07;;
19343;SDS011;9808;52.402;16.678;2023-01-05T00:52:16;2.23;;;1.00;;
19343;SDS011;9808;52.402;16.678;2023-01-05T00:54:44;2.73;;;1.10;;
19343;SDS011;9808;52.402;16.678;2023-01-05T00:57:12;3.70;;;1.47;;
19343;SDS011;9808;52.402;16.678;2023-01-05T00:59:40;1.50;;;1.10;;
19343;SDS011;9808;52.402;16.678;2023-01-05T01:02:08;3.37;;;1.00;;
19343;SDS011;9808;52.402;16.678;2023-01-05T01:04:36;2.03;;;1.13;;
19343;SDS011;9808;52.402;16.678;2023-01-05T01:07:04;2.40;;;1.10;;
19343;SDS011;9808;52.402;16.678;2023-01-05T01:09:31;2.93;;;0.83;;
19343;SDS011;9808;52.402;16.678;2023-01-05T01:11:59;1.07;;;0.63;;
19343;SDS011;9808;52.402;16.678;2023-01-05T01:14:26;2.30;;;1.00;;
19343;SDS011;9808;52.402;16.678;2023-01-05T01:16:53;2.57;;;0.83;;
19343;SDS011;9808;52.402;16.678;2023-01-05T01:19:22;1.70;;;0.70;;
19343;SDS011;9808;52.402;16.678;2023-01-05T01:21:49;2.63;;;0.90;;
19343;SDS011;9808;52.402;16.678;2023-01-05T01:24:17;2.07;;;1.00;;
19343;SDS011;9808;52.402;16.678;2023-01-05T01:26:45;1.87;;;0.80;;
19343;SDS011;9808;52.402;16.678;2023-01-05T01:29:12;2.30;;;0.70;;
19343;SDS011;9808;52.402;16.678;2023-01-05T01:31:43;3.47;;;0.70;;
19343;SDS011;9808;52.402;16.678;2023-01-05T01:34:10;3.83;;;0.80;;
19343;SDS011;9808;52.402;16.678;2023-01-05T01:36:38;1.53;;;0.60;;
19343;SDS011;9808;52.402;16.678;2023-01-05T01:39:05;3.33;;;0.60;;
19343;SDS011;9808;52.402;16.678;2023-01-05T01:41:32;2.63;;;0.60;;
19343;SDS011;9808;52.402;16.678;2023-01-05T01:44:00;5.40;;;0.87;;
19343;SDS011;9808;52.402;16.678;2023-01-05T01:46:27;1.67;;;0.80;;
19343;SDS011;9808;52.402;16.678;2023-01-05T01:48:59;2.20;;;0.77;;
19343;SDS011;9808;52.402;16.678;2023-01-05T01:51:42;3.27;;;1.30;;
19343;SDS011;9808;52.402;16.678;2023-01-05T01:54:15;2.70;;;0.90;;
19343;SDS011;9808;52.402;16.678;2023-01-05T01:56:46;1.33;;;0.63;;
19343;SDS011;9808;52.402;16.678;2023-01-05T01:59:15;2.53;;;0.60;;
19343;SDS011;9808;52.402;16.678;2023-01-05T02:01:43;2.77;;;0.70;;
19343;SDS011;9808;52.402;16.678;2023-01-05T02:04:10;2.67;;;1.00;;
19343;SDS011;9808;52.402;16.678;2023-01-05T02:06:37;3.60;;;0.67;;
19343;SDS011;9808;52.402;16.678;2023-01-05T02:09:05;3.60;;;0.70;;
19343;SDS011;9808;52.402;16.678;2023-01-05T02:22:40;2.53;;;0.77;;
19343;SDS011;9808;52.402;16.678;2023-01-05T02:27:46;2.10;;;0.67;;
19343;SDS011;9808;52.402;16.678;2023-01-05T02:40:30;2.30;;;0.57;;
19343;SDS011;9808;52.402;16.678;2023-01-05T02:42:59;1.97;;;0.67;;
19343;SDS011;9808;52.402;16.678;2023-01-05T02:45:26;3.50;;;0.70;;
19343;SDS011;9808;52.402;16.678;2023-01-05T02:47:54;3.57;;;0.60;;
19343;SDS011;9808;52.402;16.678;2023-01-05T02:53:05;2.53;;;0.70;;
19343;SDS011;9808;52.402;16.678;2023-01-05T02:55:37;4.93;;;0.83;;
19343;SDS011;9808;52.402;16.678;2023-01-05T02:58:40;5.90;;;1.30;;
19343;SDS011;9808;52.402;16.678;2023-01-05T03:01:00;4.17;;;0.80;;
19343;SDS011;9808;52.402;16.678;2023-01-05T03:06:03;2.87;;;0.93;;
19343;SDS011;9808;52.402;16.678;2023-01-05T03:08:32;6.23;;;1.00;;
19343;SDS011;9808;52.402;16.678;2023-01-05T03:11:02;3.43;;;1.13;;
19343;SDS011;9808;52.402;16.678;2023-01-05T03:13:58;2.73;;;0.93;;
19343;SDS011;9808;52.402;16.678;2023-01-05T03:16:30;5.50;;;1.17;;
19343;SDS011;9808;52.402;16.678;2023-01-05T03:19:00;4.70;;;1.00;;
19343;SDS011;9808;52.402;16.678;2023-01-05T03:21:47;2.90;;;1.13;;
19343;SDS011;9808;52.402;16.678;2023-01-05T03:24:35;3.77;;;0.90;;
19343;SDS011;9808;52.402;16.678;2023-01-05T03:27:21;4.63;;;0.80;;
19343;SDS011;9808;52.402;16.678;2023-01-05T03:30:08;5.67;;;0.90;;
19343;SDS011;9808;52.402;16.678;2023-01-05T03:32:55;7.03;;;1.00;;
19343;SDS011;9808;52.402;16.678;2023-01-05T03:35:45;3.73;;;0.60;;
19343;SDS011;9808;52.402;16.678;2023-01-05T03:40:50;4.33;;;1.10;;
19343;SDS011;9808;52.402;16.678;2023-01-05T03:43:18;3.43;;;0.90;;
19343;SDS011;9808;52.402;16.678;2023-01-05T03:45:50;4.77;;;0.93;;
19343;SDS011;9808;52.402;16.678;2023-01-05T03:48:18;4.07;;;0.93;;
19343;SDS011;9808;52.402;16.678;2023-01-05T03:50:46;2.13;;;1.00;;
19343;SDS011;9808;52.402;16.678;2023-01-05T03:53:13;3.80;;;1.03;;
19343;SDS011;9808;52.402;16.678;2023-01-05T03:55:40;6.47;;;1.40;;
19343;SDS011;9808;52.402;16.678;2023-01-05T03:58:08;2.97;;;0.80;;
19343;SDS011;9808;52.402;16.678;2023-01-05T04:00:35;7.00;;;1.33;;
19343;SDS011;9808;52.402;16.678;2023-01-05T04:03:02;5.23;;;1.03;;
19343;SDS011;9808;52.402;16.678;2023-01-05T04:05:30;3.90;;;1.27;;
19343;SDS011;9808;52.402;16.678;2023-01-05T04:07:57;6.30;;;1.30;;
19343;SDS011;9808;52.402;16.678;2023-01-05T04:10:24;8.33;;;1.63;;
19343;SDS011;9808;52.402;16.678;2023-01-05T04:12:52;8.10;;;1.47;;
19343;SDS011;9808;52.402;16.678;2023-01-05T04:15:19;5.80;;;1.70;;
19343;SDS011;9808;52.402;16.678;2023-01-05T04:17:46;10.10;;;1.93;;
19343;SDS011;9808;52.402;16.678;2023-01-05T04:20:13;7.70;;;1.33;;
19343;SDS011;9808;52.402;16.678;2023-01-05T04:22:41;6.73;;;1.77;;
19343;SDS011;9808;52.402;16.678;2023-01-05T04:25:08;3.10;;;1.10;;
19343;SDS011;9808;52.402;16.678;2023-01-05T04:27:36;6.07;;;1.40;;
19343;SDS011;9808;52.402;16.678;2023-01-05T04:30:03;8.60;;;1.60;;
19343;SDS011;9808;52.402;16.678;2023-01-05T04:32:30;6.50;;;1.43;;
19343;SDS011;9808;52.402;16.678;2023-01-05T04:34:58;7.20;;;1.50;;
19343;SDS011;9808;52.402;16.678;2023-01-05T04:37:35;9.17;;;1.60;;
19343;SDS011;9808;52.402;16.678;2023-01-05T04:40:02;5.67;;;1.43;;
19343;SDS011;9808;52.402;16.678;2023-01-05T04:42:30;6.00;;;1.23;;
19343;SDS011;9808;52.402;16.678;2023-01-05T04:44:57;8.57;;;1.50;;
19343;SDS011;9808;52.402;16.678;2023-01-05T04:47:24;5.57;;;1.60;;
19343;SDS011;9808;52.402;16.678;2023-01-05T04:49:51;6.33;;;1.53;;
19343;SDS011;9808;52.402;16.678;2023-01-05T04:52:18;5.67;;;1.60;;
19343;SDS011;9808;52.402;16.678;2023-01-05T04:54:46;5.60;;;1.37;;
19343;SDS011;9808;52.402;16.678;2023-01-05T04:57:13;8.93;;;1.60;;
19343;SDS011;9808;52.402;16.678;2023-01-05T04:59:40;7.30;;;1.50;;
19343;SDS011;9808;52.402;16.678;2023-01-05T05:02:09;6.70;;;1.30;;
19343;SDS011;9808;52.402;16.678;2023-01-05T05:04:36;8.57;;;1.77;;
19343;SDS011;9808;52.402;16.678;2023-01-05T05:07:04;9.87;;;1.60;;
19343;SDS011;9808;52.402;16.678;2023-01-05T05:09:31;11.90;;;1.77;;
19343;SDS011;9808;52.402;16.678;2023-01-05T05:11:58;6.27;;;1.40;;
19343;SDS011;9808;52.402;16.678;2023-01-05T05:14:25;4.97;;;1.50;;
19343;SDS011;9808;52.402;16.678;2023-01-05T05:16:52;10.67;;;1.53;;
19343;SDS011;9808;52.402;16.678;2023-01-05T05:19:20;6.70;;;1.50;;
19343;SDS011;9808;52.402;16.678;2023-01-05T05:21:47;6.93;;;1.83;;
19343;SDS011;9808;52.402;16.678;2023-01-05T05:24:14;6.07;;;1.60;;
19343;SDS011;9808;52.402;16.678;2023-01-05T05:26:41;5.87;;;1.33;;
19343;SDS011;9808;52.402;16.678;2023-01-05T05:29:08;3.50;;;1.30;;
19343;SDS011;9808;52.402;16.678;2023-01-05T05:31:36;5.13;;;1.20;;
19343;SDS011;9808;52.402;16.678;2023-01-05T05:34:03;4.20;;;1.00;;
19343;SDS011;9808;52.402;16.678;2023-01-05T05:36:30;3.93;;;1.10;;
19343;SDS011;9808;52.402;16.678;2023-01-05T05:38:58;4.17;;;0.87;;
19343;SDS011;9808;52.402;16.678;2023-01-05T05:41:25;5.27;;;1.20;;
19343;SDS011;9808;52.402;16.678;2023-01-05T05:43:52;4.43;;;1.20;;
19343;SDS011;9808;52.402;16.678;2023-01-05T05:46:19;3.77;;;0.93;;
19343;SDS011;9808;52.402;16.678;2023-01-05T05:48:47;4.17;;;0.90;;
19343;SDS011;9808;52.402;16.678;2023-01-05T05:51:14;5.23;;;1.30;;
19343;SDS011;9808;52.402;16.678;2023-01-05T05:53:41;8.93;;;1.30;;
19343;SDS011;9808;52.402;16.678;2023-01-05T05:56:08;5.87;;;1.17;;
19343;SDS011;9808;52.402;16.678;2023-01-05T05:58:35;5.77;;;1.20;;
19343;SDS011;9808;52.402;16.678;2023-01-05T06:01:03;3.77;;;0.97;;
19343;SDS011;9808;52.402;16.678;2023-01-05T06:03:30;9.03;;;1.00;;
19343;SDS011;9808;52.402;16.678;2023-01-05T06:05:57;3.23;;;1.00;;
19343;SDS011;9808;52.402;16.678;2023-01-05T06:08:24;5.43;;;0.93;;
19343;SDS011;9808;52.402;16.678;2023-01-05T06:10:52;5.70;;;0.90;;
19343;SDS011;9808;52.402;16.678;2023-01-05T06:13:19;2.37;;;0.70;;
19343;SDS011;9808;52.402;16.678;2023-01-05T06:15:47;4.07;;;1.10;;
19343;SDS011;9808;52.402;16.678;2023-01-05T06:18:14;4.43;;;0.90;;
19343;SDS011;9808;52.402;16.678;2023-01-05T06:20:41;2.93;;;0.90;;
19343;SDS011;9808;52.402;16.678;2023-01-05T06:23:08;8.07;;;1.33;;
19343;SDS011;9808;52.402;16.678;2023-01-05T06:25:36;7.77;;;1.53;;
19343;SDS011;9808;52.402;16.678;2023-01-05T06:28:03;6.30;;;1.47;;
19343;SDS011;9808;52.402;16.678;2023-01-05T06:30:30;4.50;;;1.30;;
19343;SDS011;9808;52.402;16.678;2023-01-05T06:32:58;7.53;;;1.50;;
19343;SDS011;9808;52.402;16.678;2023-01-05T06:35:25;9.83;;;1.90;;
19343;SDS011;9808;52.402;16.678;2023-01-05T06:37:52;8.37;;;1.90;;
19343;SDS011;9808;52.402;16.678;2023-01-05T06:40:20;4.93;;;1.30;;
19343;SDS011;9808;52.402;16.678;2023-01-05T06:42:47;7.20;;;1.47;;
19343;SDS011;9808;52.402;16.678;2023-01-05T06:45:15;7.97;;;1.33;;
19343;SDS011;9808;52.402;16.678;2023-01-05T06:47:42;6.13;;;1.60;;
19343;SDS011;9808;52.402;16.678;2023-01-05T06:50:10;3.97;;;1.17;;
19343;SDS011;9808;52.402;16.678;2023-01-05T06:52:37;7.33;;;1.33;;
19343;SDS011;9808;52.402;16.678;2023-01-05T06:55:08;7.60;;;1.80;;
19343;SDS011;9808;52.402;16.678;2023-01-05T06:57:36;3.93;;;1.30;;
19343;SDS011;9808;52.402;16.678;2023-01-05T07:00:04;3.80;;;1.13;;
19343;SDS011;9808;52.402;16.678;2023-01-05T07:02:32;5.20;;;1.33;;
19343;SDS011;9808;52.402;16.678;2023-01-05T07:04:59;4.60;;;1.20;;
19343;SDS011;9808;52.402;16.678;2023-01-05T07:07:27;3.40;;;1.30;;
19343;SDS011;9808;52.402;16.678;2023-01-05T07:09:54;3.43;;;0.93;;
19343;SDS011;9808;52.402;16.678;2023-01-05T07:12:21;4.27;;;0.90;;
19343;SDS011;9808;52.402;16.678;2023-01-05T07:14:48;2.17;;;0.90;;
19343;SDS011;9808;52.402;16.678;2023-01-05T07:17:22;4.87;;;1.17;;
19343;SDS011;9808;52.402;16.678;2023-01-05T07:19:49;3.97;;;1.10;;
19343;SDS011;9808;52.402;16.678;2023-01-05T07:22:17;7.63;;;1.27;;
19343;SDS011;9808;52.402;16.678;2023-01-05T07:24:44;6.70;;;1.60;;
19343;SDS011;9808;52.402;16.678;2023-01-05T07:27:11;4.53;;;0.90;;
19343;SDS011;9808;52.402;16.678;2023-01-05T07:29:38;10.50;;;1.80;;
19343;SDS011;9808;52.402;16.678;2023-01-05T07:32:06;3.87;;;0.90;;
19343;SDS011;9808;52.402;16.678;2023-01-05T07:34:33;3.17;;;1.00;;
19343;SDS011;9808;52.402;16.678;2023-01-05T07:37:00;6.13;;;1.40;;
19343;SDS011;9808;52.402;16.678;2023-01-05T07:39:27;5.87;;;1.17;;
19343;SDS011;9808;52.402;16.678;2023-01-05T07:41:54;3.93;;;1.23;;
19343;SDS011;9808;52.402;16.678;2023-01-05T07:44:21;3.67;;;1.13;;
19343;SDS011;9808;52.402;16.678;2023-01-05T07:46:49;3.00;;;1.17;;
19343;SDS011;9808;52.402;16.678;2023-01-05T07:49:16;6.23;;;1.13;;
19343;SDS011;9808;52.402;16.678;2023-01-05T07:51:43;5.90;;;0.90;;
19343;SDS011;9808;52.402;16.678;2023-01-05T07:54:10;8.43;;;1.10;;
19343;SDS011;9808;52.402;16.678;2023-01-05T07:56:38;4.20;;;0.93;;
19343;SDS011;9808;52.402;16.678;2023-01-05T07:59:05;6.63;;;1.27;;
19343;SDS011;9808;52.402;16.678;2023-01-05T08:01:32;5.53;;;1.40;;
19343;SDS011;9808;52.402;16.678;2023-01-05T08:04:00;3.63;;;1.13;;
19343;SDS011;9808;52.402;16.678;2023-01-05T08:06:27;3.17;;;0.90;;
19343;SDS011;9808;52.402;16.678;2023-01-05T08:08:54;4.57;;;1.50;;
19343;SDS011;9808;52.402;16.678;2023-01-05T08:11:22;6.97;;;1.50;;
19343;SDS011;9808;52.402;16.678;2023-01-05T08:13:50;6.83;;;1.43;;
19343;SDS011;9808;52.402;16.678;2023-01-05T08:16:31;4.60;;;1.10;;
19343;SDS011;9808;52.402;16.678;2023-01-05T08:18:59;5.27;;;1.33;;
19343;SDS011;9808;52.402;16.678;2023-01-05T08:21:26;6.10;;;1.10;;
19343;SDS011;9808;52.402;16.678;2023-01-05T08:23:54;6.00;;;1.07;;
19343;SDS011;9808;52.402;16.678;2023-01-05T08:26:24;3.63;;;1.20;;
19343;SDS011;9808;52.402;16.678;2023-01-05T08:28:52;2.23;;;0.90;;
19343;SDS011;9808;52.402;16.678;2023-01-05T08:31:23;5.20;;;1.30;;
19343;SDS011;9808;52.402;16.678;2023-01-05T08:33:54;4.53;;;0.93;;
19343;SDS011;9808;52.402;16.678;2023-01-05T08:36:23;3.93;;;1.40;;
19343;SDS011;9808;52.402;16.678;2023-01-05T08:38:53;3.33;;;1.20;;
19343;SDS011;9808;52.402;16.678;2023-01-05T08:41:25;6.40;;;1.27;;
19343;SDS011;9808;52.402;16.678;2023-01-05T08:43:56;5.97;;;1.30;;
19343;SDS011;9808;52.402;16.678;2023-01-05T08:46:26;6.20;;;1.20;;
19343;SDS011;9808;52.402;16.678;2023-01-05T08:48:54;3.23;;;1.10;;
19343;SDS011;9808;52.402;16.678;2023-01-05T08:51:22;3.83;;;1.30;;
19343;SDS011;9808;52.402;16.678;2023-01-05T08:53:49;2.17;;;0.93;;
19343;SDS011;9808;52.402;16.678;2023-01-05T08:56:17;4.60;;;1.07;;
19343;SDS011;9808;52.402;16.678;2023-01-05T08:58:45;5.40;;;1.60;;
19343;SDS011;9808;52.402;16.678;2023-01-05T09:01:13;3.27;;;1.40;;
19343;SDS011;9808;52.402;16.678;2023-01-05T09:03:40;5.03;;;1.57;;
19343;SDS011;9808;52.402;16.678;2023-01-05T09:06:09;5.60;;;1.17;;
19343;SDS011;9808;52.402;16.678;2023-01-05T09:08:37;6.53;;;1.43;;
19343;SDS011;9808;52.402;16.678;2023-01-05T09:11:09;3.90;;;1.30;;
19343;SDS011;9808;52.402;16.678;2023-01-05T09:13:37;4.60;;;1.30;;
19343;SDS011;9808;52.402;16.678;2023-01-05T09:16:11;6.77;;;1.53;;
19343;SDS011;9808;52.402;16.678;2023-01-05T09:18:40;4.93;;;1.33;;
19343;SDS011;9808;52.402;16.678;2023-01-05T09:21:08;6.07;;;1.40;;
19343;SDS011;9808;52.402;16.678;2023-01-05T09:23:35;6.33;;;0.80;;
19343;SDS011;9808;52.402;16.678;2023-01-05T09:26:07;4.77;;;1.30;;
19343;SDS011;9808;52.402;16.678;2023-01-05T09:28:34;5.47;;;1.30;;
19343;SDS011;9808;52.402;16.678;2023-01-05T09:31:06;2.53;;;1.00;;
19343;SDS011;9808;52.402;16.678;2023-01-05T09:33:33;5.43;;;1.20;;
19343;SDS011;9808;52.402;16.678;2023-01-05T09:36:00;11.67;;;1.70;;
19343;SDS011;9808;52.402;16.678;2023-01-05T09:38:28;5.60;;;1.53;;
19343;SDS011;9808;52.402;16.678;2023-01-05T09:40:57;5.90;;;1.30;;
19343;SDS011;9808;52.402;16.678;2023-01-05T09:43:30;4.57;;;1.33;;
19343;SDS011;9808;52.402;16.678;2023-01-05T09:46:00;5.80;;;1.37;;
19343;SDS011;9808;52.402;16.678;2023-01-05T09:48:37;9.80;;;1.60;;
19343;SDS011;9808;52.402;16.678;2023-01-05T09:51:05;9.07;;;1.23;;
19343;SDS011;9808;52.402;16.678;2023-01-05T09:53:32;6.70;;;1.37;;
19343;SDS011;9808;52.402;16.678;2023-01-05T09:56:00;6.37;;;1.50;;
19343;SDS011;9808;52.402;16.678;2023-01-05T09:58:32;6.80;;;1.27;;
19343;SDS011;9808;52.402;16.678;2023-01-05T10:03:28;7.83;;;1.60;;
19343;SDS011;9808;52.402;16.678;2023-01-05T10:06:17;9.00;;;1.43;;
19343;SDS011;9808;52.402;16.678;2023-01-05T10:08:49;4.97;;;1.30;;
19343;SDS011;9808;52.402;16.678;2023-01-05T10:11:18;4.40;;;1.20;;
19343;SDS011;9808;52.402;16.678;2023-01-05T10:14:09;6.83;;;1.30;;
19343;SDS011;9808;52.402;16.678;2023-01-05T10:16:39;6.60;;;1.40;;
19343;SDS011;9808;52.402;16.678;2023-01-05T10:19:13;6.70;;;1.13;;
19343;SDS011;9808;52.402;16.678;2023-01-05T10:24:11;5.13;;;1.00;;
19343;SDS011;9808;52.402;16.678;2023-01-05T10:29:46;3.57;;;0.80;;
19343;SDS011;9808;52.402;16.678;2023-01-05T10:38:33;3.13;;;0.67;;
19343;SDS011;9808;52.402;16.678;2023-01-05T10:46:40;1.93;;;0.60;;
19343;SDS011;9808;52.402;16.678;2023-01-05T10:49:23;5.70;;;0.83;;
19343;SDS011;9808;52.402;16.678;2023-01-05T10:51:51;5.40;;;0.80;;
19343;SDS011;9808;52.402;16.678;2023-01-05T10:57:54;3.87;;;1.13;;
19343;SDS011;9808;52.402;16.678;2023-01-05T11:02:32;4.03;;;0.50;;
19343;SDS011;9808;52.402;16.678;2023-01-05T11:07:47;3.70;;;0.90;;
19343;SDS011;9808;52.402;16.678;2023-01-05T11:12:54;6.03;;;1.03;;
19343;SDS011;9808;52.402;16.678;2023-01-05T11:15:27;1.70;;;0.73;;
19343;SDS011;9808;52.402;16.678;2023-01-05T11:17:54;4.87;;;1.07;;
19343;SDS011;9808;52.402;16.678;2023-01-05T11:20:21;1.33;;;0.60;;
19343;SDS011;9808;52.402;16.678;2023-01-05T11:22:49;6.53;;;1.43;;
19343;SDS011;9808;52.402;16.678;2023-01-05T11:28:09;2.90;;;1.10;;
19343;SDS011;9808;52.402;16.678;2023-01-05T11:30:38;2.37;;;1.10;;
19343;SDS011;9808;52.402;16.678;2023-01-05T11:33:11;4.00;;;0.80;;
19343;SDS011;9808;52.402;16.678;2023-01-05T11:35:46;3.67;;;1.00;;
19343;SDS011;9808;52.402;16.678;2023-01-05T11:38:19;3.90;;;1.13;;
19343;SDS011;9808;52.402;16.678;2023-01-05T11:40:47;6.43;;;1.53;;
19343;SDS011;9808;52.402;16.678;2023-01-05T11:43:15;2.70;;;1.10;;
19343;SDS011;9808;52.402;16.678;2023-01-05T11:45:51;6.87;;;1.20;;
19343;SDS011;9808;52.402;16.678;2023-01-05T11:48:21;4.20;;;1.10;;
19343;SDS011;9808;52.402;16.678;2023-01-05T11:50:50;4.90;;;1.00;;
19343;SDS011;9808;52.402;16.678;2023-01-05T11:53:24;4.40;;;1.23;;
19343;SDS011;9808;52.402;16.678;2023-01-05T11:56:25;9.43;;;2.23;;
19343;SDS011;9808;52.402;16.678;2023-01-05T11:58:46;7.00;;;1.80;;
19343;SDS011;9808;52.402;16.678;2023-01-05T12:09:33;3.07;;;1.00;;
19343;SDS011;9808;52.402;16.678;2023-01-05T12:12:15;4.53;;;0.97;;
19343;SDS011;9808;52.402;16.678;2023-01-05T12:17:20;5.00;;;0.97;;
19343;SDS011;9808;52.402;16.678;2023-01-05T12:19:53;4.13;;;1.00;;
19343;SDS011;9808;52.402;16.678;2023-01-05T12:35:43;5.30;;;1.23;;
19343;SDS011;9808;52.402;16.678;2023-01-05T12:43:47;3.13;;;0.70;;
19343;SDS011;9808;52.402;16.678;2023-01-05T12:48:45;3.57;;;0.93;;
19343;SDS011;9808;52.402;16.678;2023-01-05T12:54:21;5.87;;;1.30;;
19343;SDS011;9808;52.402;16.678;2023-01-05T12:56:54;3.23;;;0.93;;
19343;SDS011;9808;52.402;16.678;2023-01-05T13:07:26;4.00;;;0.93;;
19343;SDS011;9808;52.402;16.678;2023-01-05T13:10:04;3.27;;;1.07;;
19343;SDS011;9808;52.402;16.678;2023-01-05T13:12:33;3.80;;;1.00;;
19343;SDS011;9808;52.402;16.678;2023-01-05T13:15:03;2.87;;;0.83;;
19343;SDS011;9808;52.402;16.678;2023-01-05T13:17:35;6.67;;;1.10;;
19343;SDS011;9808;52.402;16.678;2023-01-05T13:22:50;3.57;;;0.90;;
19343;SDS011;9808;52.402;16.678;2023-01-05T13:25:21;3.23;;;1.10;;
19343;SDS011;9808;52.402;16.678;2023-01-05T13:27:49;2.43;;;0.80;;
19343;SDS011;9808;52.402;16.678;2023-01-05T13:30:20;4.13;;;1.10;;
19343;SDS011;9808;52.402;16.678;2023-01-05T13:33:07;3.20;;;0.80;;
19343;SDS011;9808;52.402;16.678;2023-01-05T13:41:01;3.13;;;0.90;;
19343;SDS011;9808;52.402;16.678;2023-01-05T13:43:46;7.00;;;1.20;;
19343;SDS011;9808;52.402;16.678;2023-01-05T13:51:35;2.10;;;0.73;;
19343;SDS011;9808;52.402;16.678;2023-01-05T13:54:08;0.80;;;0.40;;
19343;SDS011;9808;52.402;16.678;2023-01-05T13:56:38;1.07;;;0.53;;
19343;SDS011;9808;52.402;16.678;2023-01-05T14:02:00;2.40;;;0.60;;
19343;SDS011;9808;52.402;16.678;2023-01-05T14:04:30;1.37;;;0.60;;
19343;SDS011;9808;52.402;16.678;2023-01-05T14:07:05;1.93;;;0.80;;
19343;SDS011;9808;52.402;16.678;2023-01-05T14:09:38;8.23;;;0.80;;
19343;SDS011;9808;52.402;16.678;2023-01-05T14:17:12;4.77;;;1.50;;
19343;SDS011;9808;52.402;16.678;2023-01-05T14:19:59;11.37;;;3.27;;
19343;SDS011;9808;52.402;16.678;2023-01-05T14:22:34;17.27;;;4.87;;
19343;SDS011;9808;52.402;16.678;2023-01-05T14:28:14;14.80;;;4.50;;
19343;SDS011;9808;52.402;16.678;2023-01-05T14:30:35;12.10;;;4.07;;
19343;SDS011;9808;52.402;16.678;2023-01-05T14:33:03;6.10;;;1.97;;
19343;SDS011;9808;52.402;16.678;2023-01-05T14:35:31;4.83;;;1.67;;
19343;SDS011;9808;52.402;16.678;2023-01-05T14:38:16;5.87;;;2.03;;
19343;SDS011;9808;52.402;16.678;2023-01-05T14:40:45;7.97;;;2.40;;
19343;SDS011;9808;52.402;16.678;2023-01-05T14:43:30;13.47;;;4.20;;
19343;SDS011;9808;52.402;16.678;2023-01-05T14:48:38;10.00;;;3.53;;
19343;SDS011;9808;52.402;16.678;2023-01-05T14:53:41;4.17;;;1.77;;
19343;SDS011;9808;52.402;16.678;2023-01-05T14:56:13;9.80;;;2.57;;
19343;SDS011;9808;52.402;16.678;2023-01-05T15:06:28;16.73;;;4.77;;
19343;SDS011;9808;52.402;16.678;2023-01-05T15:17:11;7.27;;;2.80;;
19343;SDS011;9808;52.402;16.678;2023-01-05T15:19:56;10.83;;;3.50;;
19343;SDS011;9808;52.402;16.678;2023-01-05T15:32:47;7.43;;;2.80;;
19343;SDS011;9808;52.402;16.678;2023-01-05T15:35:17;5.73;;;2.20;;
19343;SDS011;9808;52.402;16.678;2023-01-05T15:37:45;8.93;;;3.57;;
19343;SDS011;9808;52.402;16.678;2023-01-05T15:42:47;7.13;;;2.40;;
19343;SDS011;9808;52.402;16.678;2023-01-05T15:45:16;11.90;;;3.07;;
19343;SDS011;9808;52.402;16.678;2023-01-05T15:47:44;12.73;;;4.13;;
19343;SDS011;9808;52.402;16.678;2023-01-05T15:50:20;11.47;;;4.20;;
19343;SDS011;9808;52.402;16.678;2023-01-05T15:53:18;11.13;;;4.47;;
19343;SDS011;9808;52.402;16.678;2023-01-05T15:55:42;10.30;;;3.20;;
19343;SDS011;9808;52.402;16.678;2023-01-05T15:58:13;6.93;;;2.87;;
19343;SDS011;9808;52.402;16.678;2023-01-05T16:00:41;6.10;;;2.60;;
19343;SDS011;9808;52.402;16.678;2023-01-05T16:03:42;24.90;;;8.80;;
19343;SDS011;9808;52.402;16.678;2023-01-05T16:06:09;10.83;;;3.33;;
19343;SDS011;9808;52.402;16.678;2023-01-05T16:08:39;18.80;;;6.73;;
19343;SDS011;9808;52.402;16.678;2023-01-05T16:11:08;31.87;;;10.80;;
19343;SDS011;9808;52.402;16.678;2023-01-05T16:13:39;12.77;;;3.93;;
19343;SDS011;9808;52.402;16.678;2023-01-05T16:16:12;11.63;;;3.83;;
19343;SDS011;9808;52.402;16.678;2023-01-05T16:19:08;15.87;;;5.03;;
19343;SDS011;9808;52.402;16.678;2023-01-05T16:24:16;14.63;;;4.03;;
19343;SDS011;9808;52.402;16.678;2023-01-05T16:26:47;15.13;;;3.73;;
19343;SDS011;9808;52.402;16.678;2023-01-05T16:29:29;13.37;;;4.40;;
19343;SDS011;9808;52.402;16.678;2023-01-05T16:31:58;19.40;;;5.87;;
19343;SDS011;9808;52.402;16.678;2023-01-05T16:34:25;13.37;;;4.67;;
19343;SDS011;9808;52.402;16.678;2023-01-05T16:37:13;16.20;;;6.03;;
19343;SDS011;9808;52.402;16.678;2023-01-05T16:39:42;13.77;;;5.27;;
19343;SDS011;9808;52.402;16.678;2023-01-05T16:42:19;16.17;;;5.30;;
19343;SDS011;9808;52.402;16.678;2023-01-05T16:45:06;8.07;;;2.80;;
19343;SDS011;9808;52.402;16.678;2023-01-05T16:47:35;7.13;;;2.60;;
19343;SDS011;9808;52.402;16.678;2023-01-05T16:50:10;13.03;;;3.47;;
19343;SDS011;9808;52.402;16.678;2023-01-05T16:52:54;7.07;;;3.00;;
19343;SDS011;9808;52.402;16.678;2023-01-05T16:55:32;7.90;;;2.33;;
19343;SDS011;9808;52.402;16.678;2023-01-05T16:58:01;6.20;;;2.37;;
19343;SDS011;9808;52.402;16.678;2023-01-05T17:03:00;9.13;;;3.60;;
19343;SDS011;9808;52.402;16.678;2023-01-05T17:05:28;5.50;;;2.03;;
19343;SDS011;9808;52.402;16.678;2023-01-05T17:10:25;10.67;;;2.40;;
19343;SDS011;9808;52.402;16.678;2023-01-05T17:13:14;9.27;;;3.73;;
19343;SDS011;9808;52.402;16.678;2023-01-05T17:15:45;11.10;;;3.83;;
19343;SDS011;9808;52.402;16.678;2023-01-05T17:18:23;7.77;;;3.20;;
19343;SDS011;9808;52.402;16.678;2023-01-05T17:20:50;8.23;;;2.17;;
19343;SDS011;9808;52.402;16.678;2023-01-05T17:24:01;10.20;;;3.53;;
19343;SDS011;9808;52.402;16.678;2023-01-05T17:26:13;12.70;;;5.67;;
19343;SDS011;9808;52.402;16.678;2023-01-05T17:28:41;9.87;;;3.47;;
19343;SDS011;9808;52.402;16.678;2023-01-05T17:31:09;7.60;;;2.57;;
19343;SDS011;9808;52.402;16.678;2023-01-05T17:33:36;7.03;;;2.80;;
19343;SDS011;9808;52.402;16.678;2023-01-05T17:36:04;8.60;;;2.70;;
19343;SDS011;9808;52.402;16.678;2023-01-05T17:38:31;10.27;;;3.50;;
19343;SDS011;9808;52.402;16.678;2023-01-05T17:40:59;11.73;;;3.20;;
19343;SDS011;9808;52.402;16.678;2023-01-05T17:43:26;16.77;;;5.27;;
19343;SDS011;9808;52.402;16.678;2023-01-05T17:45:53;7.57;;;2.33;;
19343;SDS011;9808;52.402;16.678;2023-01-05T17:48:21;9.00;;;3.70;;
19343;SDS011;9808;52.402;16.678;2023-01-05T17:50:48;8.07;;;2.03;;
19343;SDS011;9808;52.402;16.678;2023-01-05T17:53:19;5.90;;;2.03;;
19343;SDS011;9808;52.402;16.678;2023-01-05T17:55:46;5.37;;;1.67;;
19343;SDS011;9808;52.402;16.678;2023-01-05T17:58:14;6.13;;;2.30;;
19343;SDS011;9808;52.402;16.678;2023-01-05T18:00:41;6.30;;;2.40;;